Terminal Aerodrome Forecast
Issued by NWS

Current Version | Previous Version | Text Only | Print | Product List | Glossary On
Versions: 1 2 3 4 5 6 7 8 9 10 11 12
569
FTUS45 KABQ 181122
TAFSAF
TAF
KSAF 181122Z 1812/1912 36010KT P6SM FEW110
     FM181800 26008KT P6SM FEW090
     FM190100 16007KT P6SM SCT120=

USA.gov is the U.S. government's official web portal to all federal, state and local government web resources and services.